Time;durP1;ratioP1;P1;durP2;ratioP2;P2;SDS_P1;SDS_P2;PMS_P1;PMS_P2;Temp;Humidity;BMP_temperature;BMP_pressure;BME280_temperature;BME280_humidity;BME280_pressure;Samples;Min_cycle;Max_cycle;Signal;HPM_P1;HPM_P2
2022/01/13 00:00:48;;;;;;;8.60;5.07;;;-13.10;88.10;;;;;;5070089;28;20049;-81
2022/01/13 00:03:14;;;;;;;10.63;4.43;;;-13.10;88.00;;;;;;5059684;28;20050;-84
2022/01/13 00:05:40;;;;;;;10.05;6.30;;;-13.10;87.90;;;;;;5056201;28;20079;-81
2022/01/13 00:08:05;;;;;;;10.93;5.50;;;-13.00;88.00;;;;;;5054940;28;20013;-85
2022/01/13 00:10:31;;;;;;;6.90;4.13;;;-13.00;88.20;;;;;;5057269;28;20103;-81
2022/01/13 00:13:03;;;;;;;12.63;7.17;;;-13.00;88.10;;;;;;5059079;28;20029;-81
2022/01/13 00:15:51;;;;;;;9.13;5.70;;;-12.90;88.30;;;;;;5052709;28;20033;-82
2022/01/13 00:18:37;;;;;;;9.90;4.65;;;-13.00;88.30;;;;;;5051903;28;20025;-80
2022/01/13 00:21:16;;;;;;;14.32;5.47;;;-12.90;88.10;;;;;;5032810;28;20045;-80
2022/01/13 00:26:25;;;;;;;11.52;5.90;;;-13.00;87.90;;;;;;5031910;28;20088;-80
2022/01/13 00:28:52;;;;;;;9.38;6.30;;;-13.00;88.10;;;;;;5031931;28;20473;-79
2022/01/13 00:31:25;;;;;;;16.33;6.68;;;-13.00;88.10;;;;;;5032873;28;20029;-80
2022/01/13 00:33:54;;;;;;;14.80;8.02;;;-13.10;88.40;;;;;;5035367;28;20095;-79
2022/01/13 00:36:24;;;;;;;6.32;3.72;;;-13.10;88.60;;;;;;5039744;28;20012;-77
2022/01/13 00:38:50;;;;;;;10.93;5.65;;;-13.10;88.50;;;;;;5036630;28;20036;-81
2022/01/13 00:41:16;;;;;;;7.15;4.07;;;-13.10;88.30;;;;;;5035566;28;20388;-81
2022/01/13 00:43:45;;;;;;;12.02;6.60;;;-13.10;87.70;;;;;;5035210;28;20033;-81
2022/01/13 00:46:18;;;;;;;11.10;7.65;;;-13.20;87.40;;;;;;5034775;28;20041;-79
2022/01/13 00:48:44;;;;;;;18.70;7.50;;;-13.20;87.60;;;;;;5033628;28;20078;-80
2022/01/13 00:51:10;;;;;;;8.80;6.32;;;-13.10;87.90;;;;;;5034981;28;20429;-80
2022/01/13 00:53:35;;;;;;;4.18;3.22;;;-13.10;87.90;;;;;;5034999;28;20079;-79
2022/01/13 00:56:01;;;;;;;7.53;3.33;;;-13.10;87.80;;;;;;5034929;28;20029;-80
2022/01/13 00:58:29;;;;;;;13.48;4.28;;;-13.10;87.40;;;;;;5017209;28;20418;-79
2022/01/13 01:00:57;;;;;;;14.82;7.55;;;-13.10;87.30;;;;;;5019241;28;20439;-79
2022/01/13 01:03:23;;;;;;;13.93;6.38;;;-13.20;87.30;;;;;;5033106;28;20049;-79
2022/01/13 01:05:49;;;;;;;10.80;5.82;;;-13.20;87.30;;;;;;5034787;28;20041;-82
2022/01/13 01:08:15;;;;;;;12.88;8.18;;;-13.20;87.30;;;;;;5034692;28;20099;-80
2022/01/13 01:10:45;;;;;;;12.70;6.32;;;-13.20;87.20;;;;;;5034667;28;20390;-78
2022/01/13 01:13:13;;;;;;;6.28;3.90;;;-13.10;87.10;;;;;;5035262;28;20044;-78
2022/01/13 01:15:43;;;;;;;8.80;5.25;;;-13.20;86.90;;;;;;5035264;28;20065;-79
2022/01/13 01:26:32;;;;;;;12.80;5.63;;;-13.20;87.40;;;;;;5037666;28;20402;-82
2022/01/13 01:31:48;;;;;;;18.30;6.60;;;-13.20;87.30;;;;;;5035087;28;20084;-83
2022/01/13 01:36:49;;;;;;;8.10;4.45;;;-13.20;87.20;;;;;;5042121;28;20120;-82
2022/01/13 01:39:16;;;;;;;8.00;4.75;;;-13.30;87.50;;;;;;5054749;28;20099;-82
2022/01/13 01:41:45;;;;;;;8.38;4.68;;;-13.30;87.70;;;;;;5041718;28;20482;-83
2022/01/13 01:44:36;;;;;;;12.73;7.75;;;-13.30;87.90;;;;;;5036780;28;20029;-84
2022/01/13 01:47:03;;;;;;;10.38;6.88;;;-13.30;87.60;;;;;;5033936;28;20029;-83
2022/01/13 01:49:32;;;;;;;10.15;5.07;;;-13.40;87.40;;;;;;5035305;28;20052;-84
2022/01/13 01:52:00;;;;;;;11.38;6.07;;;-13.40;87.30;;;;;;5034551;28;20439;-83
2022/01/13 01:54:27;;;;;;;9.65;5.90;;;-13.40;87.40;;;;;;5034937;28;20048;-82
2022/01/13 01:56:53;;;;;;;13.18;6.85;;;-13.40;87.50;;;;;;5033750;28;20443;-81
2022/01/13 01:59:24;;;;;;;9.77;6.07;;;-13.40;87.60;;;;;;5034367;28;20116;-81
2022/01/13 02:01:51;;;;;;;14.75;7.25;;;-13.40;88.20;;;;;;5034684;28;20273;-80
2022/01/13 02:04:18;;;;;;;11.18;6.03;;;-13.50;87.40;;;;;;5054022;28;20017;-81
2022/01/13 02:06:44;;;;;;;6.28;5.18;;;-13.50;87.50;;;;;;5066452;28;20021;-80
2022/01/13 02:09:12;;;;;;;12.02;6.43;;;-13.50;87.40;;;;;;5069848;28;20021;-80
2022/01/13 02:11:47;;;;;;;12.10;6.50;;;-13.50;87.40;;;;;;5060214;28;20025;-81
2022/01/13 02:17:02;;;;;;;16.45;7.53;;;-13.50;87.70;;;;;;5054648;28;20040;-81
2022/01/13 02:19:29;;;;;;;11.02;6.00;;;-13.50;87.70;;;;;;5055291;28;20037;-82
2022/01/13 02:21:55;;;;;;;;;;;-13.40;87.50;;;;;;5038976;28;20032;-82
2022/01/13 02:24:21;;;;;;;12.90;6.47;;;-13.40;87.60;;;;;;5034738;28;19909;-82
2022/01/13 02:26:47;;;;;;;10.80;4.05;;;-13.50;87.50;;;;;;5034215;28;20032;-82
2022/01/13 02:29:12;;;;;;;12.32;4.78;;;-13.40;87.50;;;;;;5034271;28;20501;-82
2022/01/13 02:31:38;;;;;;;10.88;6.78;;;-13.50;87.50;;;;;;5015739;28;20112;-82
2022/01/13 02:34:04;;;;;;;9.35;4.63;;;-13.50;87.70;;;;;;5015783;28;20026;-81
2022/01/13 02:36:30;;;;;;;15.80;7.72;;;-13.50;87.80;;;;;;5033693;28;20087;-81
2022/01/13 02:38:58;;;;;;;14.65;7.25;;;-13.50;87.80;;;;;;5036253;28;20028;-82
2022/01/13 02:41:24;;;;;;;8.73;4.93;;;-13.50;87.70;;;;;;5048433;28;20033;-82
2022/01/13 02:43:55;;;;;;;12.88;8.85;;;-13.40;87.70;;;;;;5036157;28;20014;-83
2022/01/13 02:46:32;;;;;;;11.60;7.20;;;-13.40;87.50;;;;;;5017036;28;20040;-82
2022/01/13 02:49:00;;;;;;;7.68;4.70;;;-13.40;87.30;;;;;;5034032;28;20463;-81
2022/01/13 02:51:27;;;;;;;9.77;6.15;;;-13.40;87.10;;;;;;5033914;28;20101;-81
2022/01/13 02:53:53;;;;;;;13.10;5.18;;;-13.40;87.10;;;;;;5033691;28;20367;-82
2022/01/13 02:56:20;;;;;;;19.05;9.23;;;-13.40;87.00;;;;;;5015455;28;20517;-84
2022/01/13 02:58:46;;;;;;;8.25;4.65;;;-13.40;86.90;;;;;;5012012;28;20406;-82
2022/01/13 03:01:14;;;;;;;10.63;4.70;;;-13.50;87.20;;;;;;5027285;28;20026;-82
2022/01/13 03:03:41;;;;;;;9.75;5.90;;;-13.60;86.30;;;;;;5037807;28;20262;-82
2022/01/13 03:06:12;;;;;;;10.95;5.40;;;-13.70;86.10;;;;;;5024586;28;20025;-83
2022/01/13 03:08:41;;;;;;;9.45;4.80;;;-13.70;86.40;;;;;;5034719;28;20068;-83
2022/01/13 03:11:07;;;;;;;16.33;7.07;;;-13.80;86.90;;;;;;5067746;28;20013;-81
2022/01/13 03:13:33;;;;;;;9.63;6.10;;;-13.80;87.30;;;;;;5058188;28;20021;-83
2022/01/13 03:16:09;;;;;;;17.25;8.05;;;-13.90;87.50;;;;;;5035181;28;20115;-82
2022/01/13 03:18:36;;;;;;;9.27;5.72;;;-13.90;87.40;;;;;;5052465;28;20470;-81
2022/01/13 03:21:02;;;;;;;9.07;4.75;;;-13.90;87.20;;;;;;5041687;28;20053;-81
2022/01/13 03:23:28;;;;;;;13.63;7.60;;;-13.90;87.10;;;;;;5032826;28;20033;-83
2022/01/13 03:25:53;;;;;;;13.98;5.72;;;-13.90;87.00;;;;;;5032971;28;20104;-81
2022/01/13 03:28:30;;;;;;;9.98;6.25;;;-14.00;86.80;;;;;;5033063;28;20058;-81
2022/01/13 03:31:00;;;;;;;13.93;7.78;;;-14.00;86.70;;;;;;5033487;28;20036;-83
2022/01/13 03:33:26;;;;;;;18.75;7.57;;;-14.10;86.40;;;;;;5034226;28;20052;-81
2022/01/13 03:35:52;;;;;;;15.02;8.23;;;-14.20;85.90;;;;;;5032982;28;20171;-81
2022/01/13 03:38:18;;;;;;;14.27;8.68;;;-14.30;85.80;;;;;;5034684;28;20064;-80
2022/01/13 03:40:44;;;;;;;9.17;6.67;;;-14.30;85.90;;;;;;5032372;28;20037;-81
2022/01/13 03:43:11;;;;;;;18.02;7.97;;;-14.40;85.80;;;;;;5013680;28;20025;-84
2022/01/13 03:45:37;;;;;;;15.45;7.75;;;-14.40;86.30;;;;;;5033137;28;20037;-81
2022/01/13 03:48:06;;;;;;;12.27;7.60;;;-14.50;86.60;;;;;;5037366;28;20104;-80
2022/01/13 03:50:33;;;;;;;14.18;5.72;;;-14.50;86.70;;;;;;5033291;28;20262;-80
2022/01/13 03:53:01;;;;;;;14.10;7.20;;;-14.50;86.70;;;;;;5014224;28;20459;-83
2022/01/13 03:55:36;;;;;;;17.45;7.72;;;-14.40;87.10;;;;;;5033082;28;20478;-82
2022/01/13 03:58:26;;;;;;;8.60;3.35;;;-14.40;87.00;;;;;;5049425;28;20070;-81
2022/01/13 04:01:31;;;;;;;8.98;5.00;;;-14.40;86.90;;;;;;5052285;28;20024;-83
2022/01/13 04:03:57;;;;;;;10.90;6.37;;;-14.50;86.90;;;;;;5032845;28;20030;-82
2022/01/13 04:06:23;;;;;;;14.13;6.80;;;-14.50;87.00;;;;;;5033355;28;20026;-82
2022/01/13 04:08:50;;;;;;;10.68;5.57;;;-14.50;87.00;;;;;;5036416;28;20031;-83
2022/01/13 04:11:19;;;;;;;;;;;-14.50;87.10;;;;;;5028935;28;20475;-81
2022/01/13 04:14:02;;;;;;;16.58;6.15;;;-14.60;87.10;;;;;;5064384;28;19971;-81
2022/01/13 04:16:33;;;;;;;10.02;5.03;;;-14.60;87.10;;;;;;5070993;28;20033;-82
2022/01/13 04:19:04;;;;;;;11.07;5.82;;;-14.60;86.90;;;;;;5061738;28;20128;-80
2022/01/13 04:21:32;;;;;;;9.50;5.35;;;-14.60;87.10;;;;;;5040990;28;20026;-81
2022/01/13 04:23:58;;;;;;;11.77;6.22;;;-14.70;87.20;;;;;;5036641;28;20025;-82
2022/01/13 04:26:30;;;;;;;3.92;3.20;;;-14.70;87.40;;;;;;5035945;28;20025;-81
2022/01/13 04:31:37;;;;;;;8.38;4.07;;;-14.70;87.70;;;;;;5037539;28;20236;-82
2022/01/13 04:34:03;;;;;;;;;;;-14.70;87.70;;;;;;5017988;28;20120;-82
2022/01/13 04:36:28;;;;;;;13.73;5.55;;;-14.70;88.10;;;;;;5035723;28;19948;-82
2022/01/13 04:38:54;;;;;;;17.10;9.60;;;-14.80;88.10;;;;;;5017410;28;20089;-81
2022/01/13 04:41:30;;;;;;;14.50;8.50;;;-14.80;88.20;;;;;;5035782;28;20108;-82
2022/01/13 04:43:56;;;;;;;10.57;6.22;;;-14.80;88.40;;;;;;5035987;28;20028;-81
2022/01/13 04:46:23;;;;;;;12.73;7.05;;;-14.70;88.50;;;;;;5035908;28;20036;-83
2022/01/13 04:48:49;;;;;;;6.35;4.32;;;-14.70;88.70;;;;;;5035883;28;20452;-81
2022/01/13 04:51:15;;;;;;;14.57;6.40;;;-14.60;89.00;;;;;;5036443;28;20025;-83
2022/01/13 04:53:41;;;;;;;5.60;3.23;;;-14.50;89.10;;;;;;5037075;28;20040;-82
2022/01/13 04:56:12;;;;;;;9.27;4.88;;;-14.50;89.20;;;;;;5041582;28;20092;-81
2022/01/13 04:58:38;;;;;;;15.05;6.50;;;-14.40;89.50;;;;;;5047882;28;20100;-82
2022/01/13 05:01:04;;;;;;;14.20;6.28;;;-14.40;89.50;;;;;;5037294;28;20021;-80
2022/01/13 05:03:30;;;;;;;10.27;5.72;;;-14.40;89.80;;;;;;5036481;28;20104;-83
2022/01/13 05:05:56;;;;;;;12.55;5.63;;;-14.30;90.00;;;;;;5034121;28;20029;-83
2022/01/13 05:08:21;;;;;;;18.87;7.40;;;-14.30;90.10;;;;;;5035860;28;20028;-84
2022/01/13 05:10:47;;;;;;;17.65;7.82;;;-14.30;90.10;;;;;;5036812;28;20033;-84
2022/01/13 05:13:14;;;;;;;9.50;5.68;;;-14.30;90.10;;;;;;5036723;28;20386;-82
2022/01/13 05:15:40;;;;;;;17.27;9.30;;;-14.30;90.10;;;;;;5057395;28;20033;-80
2022/01/13 05:18:18;;;;;;;6.80;4.90;;;-14.30;90.10;;;;;;5049585;28;20262;-80
2022/01/13 05:20:57;;;;;;;11.40;4.53;;;-14.20;90.20;;;;;;5053322;28;20060;-82
2022/01/13 05:23:23;;;;;;;18.05;8.30;;;-14.20;90.60;;;;;;5037179;28;20025;-83
2022/01/13 05:25:49;;;;;;;23.98;7.40;;;-14.20;90.30;;;;;;5035596;28;20037;-82
2022/01/13 05:28:15;;;;;;;16.60;10.53;;;-14.30;90.30;;;;;;4974628;28;20035;-84
2022/01/13 05:30:41;;;;;;;16.43;7.73;;;-14.30;90.30;;;;;;4974209;28;20243;-83
2022/01/13 05:33:08;;;;;;;22.73;10.43;;;-14.30;90.40;;;;;;4973787;28;20820;-82
2022/01/13 05:35:36;;;;;;;4.97;3.55;;;-14.40;90.40;;;;;;4974531;28;20034;-84
2022/01/13 05:38:05;;;;;;;16.63;6.80;;;-14.40;90.40;;;;;;4975184;28;20035;-82
2022/01/13 05:40:32;;;;;;;13.40;6.50;;;-14.40;90.40;;;;;;4972699;28;20047;-82
2022/01/13 05:42:57;;;;;;;15.15;6.97;;;-14.50;90.40;;;;;;4973884;28;20441;-81
2022/01/13 05:45:28;;;;;;;5.30;4.10;;;-14.50;90.40;;;;;;4973065;28;20069;-81
2022/01/13 05:47:56;;;;;;;25.35;9.55;;;-14.50;90.40;;;;;;4973461;28;20086;-82
2022/01/13 05:50:22;;;;;;;13.45;7.18;;;-14.60;90.50;;;;;;4973989;28;20037;-82
2022/01/13 05:52:48;;;;;;;15.97;8.03;;;-14.60;90.50;;;;;;4982069;28;20071;-81
2022/01/13 05:55:15;;;;;;;9.87;4.60;;;-14.60;90.60;;;;;;4981746;28;20114;-82
2022/01/13 05:57:41;;;;;;;6.32;4.93;;;-14.60;90.70;;;;;;4957586;28;20038;-81
2022/01/13 06:00:10;;;;;;;15.43;5.33;;;-14.60;90.70;;;;;;4954643;29;20500;-82
2022/01/13 06:02:36;;;;;;;11.35;5.78;;;-14.60;90.80;;;;;;4954006;29;20039;-82
2022/01/13 06:05:03;;;;;;;9.63;5.50;;;-14.50;90.80;;;;;;4974941;28;20069;-81
2022/01/13 06:07:28;;;;;;;14.52;6.80;;;-14.50;90.90;;;;;;5034600;28;20398;-81
2022/01/13 06:09:54;;;;;;;14.15;7.28;;;-14.50;90.90;;;;;;5034491;28;20022;-80
2022/01/13 06:12:31;;;;;;;8.13;4.45;;;-14.40;90.90;;;;;;5033583;28;20031;-81
2022/01/13 06:14:57;;;;;;;22.58;7.90;;;-14.40;90.90;;;;;;5034523;28;20330;-82
2022/01/13 06:17:22;;;;;;;10.90;6.87;;;-14.40;90.90;;;;;;5035386;28;20030;-80
2022/01/13 06:19:48;;;;;;;23.30;7.75;;;-14.40;90.80;;;;;;5046061;28;20025;-79
2022/01/13 06:22:14;;;;;;;18.20;9.40;;;-14.40;90.80;;;;;;5047471;28;20026;-82
2022/01/13 06:24:39;;;;;;;14.10;7.72;;;-14.40;90.90;;;;;;5028734;28;20493;-81
2022/01/13 06:27:05;;;;;;;14.93;7.57;;;-14.40;90.90;;;;;;5042839;28;20033;-82
2022/01/13 06:29:31;;;;;;;16.55;7.20;;;-14.40;90.90;;;;;;5038603;28;20025;-81
2022/01/13 06:31:57;;;;;;;15.88;7.07;;;-14.40;90.90;;;;;;5034493;28;20033;-81
2022/01/13 06:34:23;;;;;;;18.70;7.00;;;-14.30;91.00;;;;;;5033588;28;20033;-82
2022/01/13 06:36:49;;;;;;;13.48;6.95;;;-14.30;91.00;;;;;;5016242;28;20030;-80
2022/01/13 06:39:15;;;;;;;15.57;7.72;;;-14.30;91.00;;;;;;5033162;28;20445;-79
2022/01/13 06:41:41;;;;;;;23.95;9.82;;;-14.20;90.90;;;;;;5034487;28;20041;-81
2022/01/13 06:44:07;;;;;;;19.53;9.27;;;-14.20;91.00;;;;;;5043978;28;20071;-80
2022/01/13 06:46:32;;;;;;;13.82;7.35;;;-14.20;91.00;;;;;;5020066;28;20266;-82
2022/01/13 06:48:59;;;;;;;20.05;8.98;;;-14.10;91.00;;;;;;5033761;28;20112;-80
2022/01/13 06:51:24;;;;;;;19.57;10.40;;;-14.10;91.00;;;;;;5015527;28;20398;-81
2022/01/13 06:53:50;;;;;;;22.05;12.18;;;-14.10;91.10;;;;;;5034077;28;20026;-82
2022/01/13 06:56:16;;;;;;;29.08;9.88;;;-14.00;91.20;;;;;;5035173;28;20521;-82
2022/01/13 06:58:45;;;;;;;21.83;10.27;;;-13.90;91.30;;;;;;5035108;28;20033;-84
2022/01/13 07:01:11;;;;;;;19.15;7.80;;;-13.80;91.30;;;;;;5017088;28;20029;-86
2022/01/13 07:03:37;;;;;;;17.63;9.35;;;-13.70;91.10;;;;;;5033765;28;20021;-84
2022/01/13 07:06:03;;;;;;;22.38;10.65;;;-13.70;90.90;;;;;;5032353;28;20048;-82
2022/01/13 07:08:28;;;;;;;11.25;6.43;;;-13.60;90.80;;;;;;5036112;28;20022;-85
2022/01/13 07:10:54;;;;;;;14.80;8.40;;;-13.60;90.60;;;;;;5034240;28;20112;-85
2022/01/13 07:13:21;;;;;;;14.32;9.48;;;-13.60;90.60;;;;;;5016487;28;20495;-80
2022/01/13 07:15:47;;;;;;;18.25;10.98;;;-13.60;90.60;;;;;;5033963;28;20079;-81
2022/01/13 07:18:13;;;;;;;18.75;9.85;;;-13.60;90.60;;;;;;5002062;28;20489;-83
2022/01/13 07:20:42;;;;;;;18.63;10.60;;;-13.60;90.60;;;;;;5034183;28;20423;-82
2022/01/13 07:23:08;;;;;;;14.80;8.93;;;-13.60;90.70;;;;;;5036430;28;20458;-83
2022/01/13 07:25:33;;;;;;;19.00;11.10;;;-13.60;90.70;;;;;;5032849;28;20034;-84
2022/01/13 07:27:59;;;;;;;19.42;9.48;;;-13.50;90.80;;;;;;5034635;28;20033;-84
2022/01/13 07:30:25;;;;;;;18.73;10.95;;;-13.50;90.70;;;;;;5032691;28;20025;-82
2022/01/13 07:32:51;;;;;;;22.42;10.18;;;-13.40;90.80;;;;;;5034758;28;20040;-85
2022/01/13 07:35:17;;;;;;;23.25;10.68;;;-13.40;90.90;;;;;;5037215;28;20037;-84
2022/01/13 07:37:43;;;;;;;28.95;15.00;;;-13.30;91.00;;;;;;5038374;28;20021;-84
2022/01/13 07:40:13;;;;;;;26.40;13.27;;;-13.20;91.10;;;;;;5035745;28;20060;-85
2022/01/13 07:42:43;;;;;;;27.98;14.75;;;-13.00;91.20;;;;;;5037101;28;20486;-83
2022/01/13 07:45:11;;;;;;;25.38;13.55;;;-12.90;91.30;;;;;;5040752;28;20024;-83
2022/01/13 07:47:37;;;;;;;35.20;13.63;;;-12.70;91.30;;;;;;5047764;28;20022;-84
2022/01/13 07:50:05;;;;;;;25.73;11.50;;;-12.50;91.30;;;;;;5048663;28;20116;-84
2022/01/13 07:52:31;;;;;;;17.63;9.73;;;-12.30;91.20;;;;;;5041762;28;20029;-85
2022/01/13 07:54:56;;;;;;;13.65;7.50;;;-12.20;91.10;;;;;;5020410;28;20029;-83
2022/01/13 07:57:22;;;;;;;15.32;9.55;;;-12.00;90.90;;;;;;5035888;28;20532;-84
2022/01/13 07:59:48;;;;;;;17.17;9.25;;;-11.90;91.10;;;;;;5036339;28;20032;-84
2022/01/13 08:02:14;;;;;;;20.02;10.45;;;-11.80;90.50;;;;;;5037704;28;20022;-83
2022/01/13 08:04:40;;;;;;;11.13;6.60;;;-11.70;90.20;;;;;;5037480;28;20097;-83
2022/01/13 08:07:06;;;;;;;17.48;9.35;;;-11.60;90.10;;;;;;5037435;28;20028;-83
2022/01/13 08:09:32;;;;;;;21.70;9.88;;;-11.60;90.10;;;;;;5037350;28;20025;-83
2022/01/13 08:11:57;;;;;;;10.05;7.30;;;-11.50;89.80;;;;;;5038945;28;20083;-81
2022/01/13 08:14:23;;;;;;;16.58;8.82;;;-11.50;89.20;;;;;;5036790;28;20025;-83
2022/01/13 08:16:49;;;;;;;12.18;7.82;;;-11.30;89.00;;;;;;5037516;28;20046;-83
2022/01/13 08:21:59;;;;;;;17.92;8.55;;;-11.10;89.30;;;;;;5058293;28;20093;-83
2022/01/13 08:24:25;;;;;;;19.60;9.05;;;-11.00;89.80;;;;;;5059292;28;20017;-83
2022/01/13 08:26:51;;;;;;;16.77;7.47;;;-10.90;90.30;;;;;;5058111;28;20036;-83
2022/01/13 08:29:17;;;;;;;16.98;8.15;;;-10.70;90.60;;;;;;5050746;28;20429;-83
2022/01/13 08:31:42;;;;;;;17.10;8.90;;;-10.50;91.00;;;;;;5073236;28;20063;-81
2022/01/13 08:34:08;;;;;;;15.93;8.27;;;-10.30;91.30;;;;;;5066065;28;20091;-83
2022/01/13 08:36:34;;;;;;;12.57;7.50;;;-10.00;91.30;;;;;;5059306;28;20508;-83
2022/01/13 08:39:00;;;;;;;23.90;8.70;;;-9.70;91.20;;;;;;5061143;28;20025;-85
2022/01/13 08:41:25;;;;;;;19.27;8.02;;;-9.40;90.40;;;;;;5065475;28;20482;-82
2022/01/13 08:43:53;;;;;;;26.40;9.52;;;-9.10;90.10;;;;;;5059586;28;20397;-84
2022/01/13 08:46:19;;;;;;;14.88;6.28;;;-9.00;89.00;;;;;;5059324;28;20059;-83
2022/01/13 08:48:45;;;;;;;14.95;8.68;;;-9.00;87.70;;;;;;5056661;28;20025;-84
2022/01/13 08:51:10;;;;;;;15.52;7.20;;;-8.90;87.30;;;;;;5056201;28;20074;-83
2022/01/13 08:53:38;;;;;;;17.70;8.20;;;-8.90;87.20;;;;;;5056028;28;20482;-83
2022/01/13 08:56:04;;;;;;;10.85;5.45;;;-8.90;87.40;;;;;;5054906;28;20056;-81
2022/01/13 08:58:30;;;;;;;7.10;5.30;;;-8.90;87.20;;;;;;5056775;28;20033;-84
2022/01/13 09:00:56;;;;;;;9.93;4.90;;;-8.90;85.90;;;;;;5056099;28;20329;-83
2022/01/13 09:03:22;;;;;;;8.77;6.22;;;-8.90;85.00;;;;;;5055275;28;20029;-83
2022/01/13 09:05:48;;;;;;;9.73;4.63;;;-8.90;84.60;;;;;;5055578;28;20104;-83
2022/01/13 09:08:14;;;;;;;8.07;4.68;;;-8.90;85.00;;;;;;5055269;28;20395;-84
2022/01/13 09:10:42;;;;;;;8.60;5.38;;;-9.00;85.40;;;;;;5056747;28;20025;-85
2022/01/13 09:13:14;;;;;;;14.02;6.97;;;-9.10;85.40;;;;;;5055093;28;20025;-84
2022/01/13 09:15:45;;;;;;;14.30;7.03;;;-9.20;85.10;;;;;;5055790;28;20182;-82
2022/01/13 09:18:16;;;;;;;7.85;5.10;;;-9.30;83.70;;;;;;5055148;28;20108;-84
2022/01/13 09:20:43;;;;;;;8.40;5.93;;;-9.40;83.00;;;;;;5037472;28;20056;-82
2022/01/13 09:23:10;;;;;;;10.25;6.20;;;-9.40;82.60;;;;;;5056140;28;20058;-84
2022/01/13 09:25:36;;;;;;;10.60;4.63;;;-9.40;82.60;;;;;;5055649;28;20032;-82
2022/01/13 09:28:06;;;;;;;9.93;5.00;;;-9.40;82.60;;;;;;5054882;28;20044;-83
2022/01/13 09:30:32;;;;;;;8.50;5.50;;;-9.40;83.30;;;;;;5037041;28;20029;-85
2022/01/13 09:32:58;;;;;;;10.07;4.53;;;-9.30;82.70;;;;;;5055915;28;20033;-84
2022/01/13 09:35:24;;;;;;;8.63;4.20;;;-9.30;80.40;;;;;;5057579;28;20029;-83
2022/01/13 09:37:50;;;;;;;14.10;4.63;;;-9.30;81.20;;;;;;5060735;28;20108;-84
2022/01/13 09:40:16;;;;;;;6.47;3.63;;;-9.30;81.30;;;;;;5037127;28;20021;-83
2022/01/13 09:42:44;;;;;;;7.47;3.20;;;-9.30;80.70;;;;;;5055509;28;20036;-84
2022/01/13 09:45:11;;;;;;;7.45;4.35;;;-9.40;81.40;;;;;;5054547;28;20021;-83
2022/01/13 09:47:38;;;;;;;12.60;5.43;;;-9.50;81.40;;;;;;5037515;28;20040;-83
2022/01/13 09:50:10;;;;;;;7.07;4.45;;;-9.50;80.40;;;;;;5060205;28;20047;-86
2022/01/13 09:52:38;;;;;;;7.93;4.20;;;-9.50;79.40;;;;;;5054308;28;20032;-85
2022/01/13 09:55:06;;;;;;;9.98;4.50;;;-9.50;79.10;;;;;;5055274;28;20032;-84
2022/01/13 09:57:32;;;;;;;8.70;4.75;;;-9.50;80.10;;;;;;5038223;28;20036;-84
2022/01/13 09:59:58;;;;;;;10.88;5.82;;;-9.50;80.50;;;;;;5055155;28;20013;-84
2022/01/13 10:02:25;;;;;;;9.05;4.68;;;-9.60;79.60;;;;;;5055684;28;20589;-86
2022/01/13 10:04:56;;;;;;;8.63;4.25;;;-9.70;79.00;;;;;;5055008;28;20108;-82
2022/01/13 10:07:57;;;;;;;10.30;4.10;;;-9.70;79.60;;;;;;5056602;28;20399;-84
2022/01/13 10:10:32;;;;;;;6.03;3.83;;;-9.80;80.20;;;;;;4978028;28;20041;-85
2022/01/13 10:13:09;;;;;;;7.60;5.68;;;-9.80;81.00;;;;;;4973501;28;20066;-85
2022/01/13 10:18:37;;;;;;;6.80;3.72;;;-9.90;81.00;;;;;;4975672;28;20066;-86
2022/01/13 10:21:10;;;;;;;9.45;4.60;;;-9.90;80.60;;;;;;4978340;28;20098;-84
2022/01/13 10:23:36;;;;;;;14.25;6.72;;;-9.90;80.80;;;;;;4992941;28;20034;-81
2022/01/13 10:26:14;;;;;;;8.40;5.53;;;-9.90;79.80;;;;;;4996034;28;20073;-83
2022/01/13 10:28:49;;;;;;;12.20;5.50;;;-9.90;78.90;;;;;;4995426;28;20411;-83
2022/01/13 10:31:15;;;;;;;8.45;4.85;;;-9.90;78.80;;;;;;4993467;28;20411;-86
2022/01/13 10:33:41;;;;;;;7.88;5.05;;;-9.90;79.10;;;;;;4992942;28;20034;-84
2022/01/13 10:36:12;;;;;;;7.85;5.25;;;-9.90;79.80;;;;;;5010086;28;20053;-82
2022/01/13 10:38:57;;;;;;;11.98;5.35;;;-9.80;80.40;;;;;;5022728;28;20616;-82
2022/01/13 10:42:13;;;;;;;12.00;6.43;;;-9.80;80.90;;;;;;5016883;28;20033;-84
2022/01/13 10:44:22;;;;;;;11.02;5.75;;;-9.70;81.50;;;;;;5039917;28;20077;-83
2022/01/13 10:47:02;;;;;;;4.25;2.92;;;-9.70;81.40;;;;;;5074565;28;20029;-85
2022/01/13 10:49:34;;;;;;;7.18;4.70;;;-9.60;81.60;;;;;;5073675;28;20473;-85
2022/01/13 10:52:24;;;;;;;14.85;7.18;;;-9.60;82.70;;;;;;5072158;28;20107;-84
2022/01/13 10:55:08;;;;;;;11.23;6.95;;;-9.50;83.20;;;;;;5054403;28;20049;-82
2022/01/13 10:57:36;;;;;;;9.55;4.93;;;-9.60;83.90;;;;;;5055298;28;20025;-85
2022/01/13 11:00:04;;;;;;;15.07;6.80;;;-9.50;84.80;;;;;;5059121;28;20025;-85
2022/01/13 11:02:30;;;;;;;12.68;7.32;;;-9.50;85.60;;;;;;5065974;28;20021;-84
2022/01/13 11:05:01;;;;;;;9.63;3.72;;;-9.50;85.90;;;;;;5057068;28;20578;-84
2022/01/13 11:07:28;;;;;;;10.23;5.78;;;-9.50;86.30;;;;;;5060321;28;20021;-84
2022/01/13 11:09:56;;;;;;;20.40;10.43;;;-9.40;87.10;;;;;;5061289;28;20498;-86
2022/01/13 11:12:39;;;;;;;11.88;6.40;;;-9.40;87.30;;;;;;5056973;28;20025;-84
2022/01/13 11:15:12;;;;;;;14.43;7.85;;;-9.30;87.10;;;;;;5073548;28;20031;-85
2022/01/13 11:17:38;;;;;;;13.43;5.80;;;-9.20;87.40;;;;;;5073635;28;20038;-85
2022/01/13 11:20:17;;;;;;;13.70;7.82;;;-9.10;87.60;;;;;;5060164;28;20057;-85
2022/01/13 11:22:45;;;;;;;13.45;6.97;;;-9.10;87.60;;;;;;5033033;28;20811;-85
2022/01/13 11:25:12;;;;;;;9.95;4.90;;;-9.00;87.80;;;;;;5032862;28;20028;-85
2022/01/13 11:27:39;;;;;;;8.15;4.70;;;-8.90;88.80;;;;;;5048344;28;20036;-83
2022/01/13 11:30:11;;;;;;;9.95;4.53;;;-8.90;89.60;;;;;;5052632;28;20116;-85
2022/01/13 11:32:40;;;;;;;11.75;5.72;;;-8.80;90.20;;;;;;5058329;28;20551;-84
2022/01/13 11:35:07;;;;;;;10.75;5.53;;;-8.80;90.70;;;;;;5062711;28;20025;-82
2022/01/13 11:37:34;;;;;;;9.85;6.13;;;-8.80;90.80;;;;;;5054971;28;20118;-86
2022/01/13 11:40:00;;;;;;;10.75;5.25;;;-8.80;91.10;;;;;;5052845;28;20421;-84
2022/01/13 11:42:26;;;;;;;11.18;4.82;;;-8.80;91.40;;;;;;5053414;28;20033;-86
2022/01/13 11:45:16;;;;;;;10.15;4.82;;;-8.80;91.60;;;;;;5037204;28;20041;-85
2022/01/13 11:47:42;;;;;;;7.47;3.78;;;-8.80;91.90;;;;;;5032854;28;20029;-83
2022/01/13 11:50:20;;;;;;;7.07;3.25;;;-8.80;92.10;;;;;;5033444;28;20088;-84
2022/01/13 11:52:52;;;;;;;10.30;5.13;;;-8.80;92.30;;;;;;5033315;28;20030;-82
2022/01/13 11:55:21;;;;;;;6.53;3.15;;;-8.70;92.40;;;;;;5032835;28;20060;-84
2022/01/13 11:57:46;;;;;;;8.77;4.82;;;-8.70;92.30;;;;;;5032932;28;20044;-83
2022/01/13 12:00:25;;;;;;;11.98;5.88;;;-8.70;92.40;;;;;;5033279;28;21906;-84
2022/01/13 12:02:51;;;;;;;11.57;5.50;;;-8.70;92.60;;;;;;5035678;28;20026;-83
2022/01/13 12:05:24;;;;;;;13.63;5.15;;;-8.70;92.70;;;;;;5035341;28;20453;-82
2022/01/13 12:07:51;;;;;;;8.57;4.25;;;-8.70;92.90;;;;;;5017373;28;20037;-83
2022/01/13 12:10:37;;;;;;;8.93;7.03;;;-8.70;93.10;;;;;;5035615;28;20104;-87
2022/01/13 12:13:33;;;;;;;10.55;6.93;;;-8.60;93.50;;;;;;5031471;28;20033;-82
2022/01/13 12:16:00;;;;;;;8.07;4.65;;;-8.60;93.50;;;;;;5041338;28;20037;-83
2022/01/13 12:18:44;;;;;;;;;;;-8.60;93.50;;;;;;5035059;28;20402;-85
2022/01/13 12:21:34;;;;;;;12.80;5.65;;;-8.60;93.60;;;;;;5052835;28;19920;-84
2022/01/13 12:24:00;;;;;;;11.52;6.63;;;-8.50;93.60;;;;;;5034516;28;20060;-84
2022/01/13 12:26:48;;;;;;;10.30;4.35;;;-8.50;93.60;;;;;;5033196;28;20059;-85
2022/01/13 12:29:27;;;;;;;8.75;5.28;;;-8.40;93.80;;;;;;5037292;28;20486;-86
2022/01/13 12:32:04;;;;;;;8.32;4.90;;;-8.50;94.00;;;;;;5037002;28;20059;-86
2022/01/13 12:34:32;;;;;;;8.93;5.13;;;-8.40;94.30;;;;;;5036314;28;20390;-85
2022/01/13 12:37:11;;;;;;;10.05;4.80;;;-8.40;94.40;;;;;;5017002;28;20072;-84
2022/01/13 12:39:44;;;;;;;11.45;5.97;;;-8.30;94.60;;;;;;5037581;28;20026;-83
2022/01/13 12:42:16;;;;;;;16.90;7.72;;;-8.20;94.60;;;;;;5021501;28;20022;-84
2022/01/13 12:47:27;;;;;;;13.18;6.20;;;-8.10;94.50;;;;;;5043999;28;20037;-82
2022/01/13 12:49:55;;;;;;;15.60;5.80;;;-8.00;94.50;;;;;;5021529;28;20034;-83
2022/01/13 12:52:25;;;;;;;14.05;6.47;;;-8.00;94.60;;;;;;5017328;28;20411;-85
2022/01/13 12:54:52;;;;;;;5.40;4.00;;;-8.00;94.60;;;;;;5016728;28;20018;-86
2022/01/13 12:57:18;;;;;;;6.88;5.22;;;-8.00;94.50;;;;;;5017778;28;20026;-84
2022/01/13 12:59:46;;;;;;;13.48;6.53;;;-8.00;94.40;;;;;;5017106;28;20045;-83
2022/01/13 13:02:12;;;;;;;9.60;6.20;;;-8.00;94.30;;;;;;5016663;28;20029;-86
2022/01/13 13:04:39;;;;;;;13.57;6.07;;;-8.00;94.40;;;;;;5016145;28;20033;-81
2022/01/13 13:07:07;;;;;;;13.38;4.75;;;-8.00;94.40;;;;;;5007746;28;20037;-85
2022/01/13 13:09:33;;;;;;;15.68;7.28;;;-8.00;94.40;;;;;;5035302;28;20347;-83
2022/01/13 13:12:03;;;;;;;10.50;4.90;;;-8.00;94.40;;;;;;5038754;28;20086;-84